sensor_id;sensor_type;location;lat;lon;timestamp;pressure;altitude;pressure_sealevel;temperature;humidity
50636;BME280;36598;46.054;11.130;2022-09-09T00:03:43;98904.38;;;20.69;78.97
50636;BME280;36598;46.054;11.130;2022-09-09T00:09:00;98893.53;;;20.83;78.62
50636;BME280;36598;46.054;11.130;2022-09-09T00:11:26;98898.50;;;20.93;78.26
50636;BME280;36598;46.054;11.130;2022-09-09T00:13:53;98890.44;;;21.01;78.16
50636;BME280;36598;46.054;11.130;2022-09-09T00:16:22;98884.41;;;20.88;78.64
50636;BME280;36598;46.054;11.130;2022-09-09T00:18:57;98883.97;;;20.95;78.51
50636;BME280;36598;46.054;11.130;2022-09-09T00:21:40;98888.59;;;20.98;78.26
50636;BME280;36598;46.054;11.130;2022-09-09T00:24:10;98882.97;;;20.98;78.80
50636;BME280;36598;46.054;11.130;2022-09-09T00:26:42;98882.84;;;20.66;80.10
50636;BME280;36598;46.054;11.130;2022-09-09T00:31:35;98889.25;;;20.67;80.39
50636;BME280;36598;46.054;11.130;2022-09-09T00:34:09;98882.34;;;20.88;79.29
50636;BME280;36598;46.054;11.130;2022-09-09T00:36:37;98883.84;;;20.84;79.73
50636;BME280;36598;46.054;11.130;2022-09-09T00:39:03;98886.28;;;20.96;79.35
50636;BME280;36598;46.054;11.130;2022-09-09T00:44:32;98886.06;;;20.24;82.21
50636;BME280;36598;46.054;11.130;2022-09-09T00:47:26;98889.91;;;20.06;83.12
50636;BME280;36598;46.054;11.130;2022-09-09T00:50:09;98894.88;;;20.32;82.27
50636;BME280;36598;46.054;11.130;2022-09-09T00:57:53;98900.72;;;20.84;80.10
50636;BME280;36598;46.054;11.130;2022-09-09T01:05:27;98899.09;;;20.42;81.42
50636;BME280;36598;46.054;11.130;2022-09-09T01:07:55;98900.44;;;20.11;82.89
50636;BME280;36598;46.054;11.130;2022-09-09T01:10:29;98904.19;;;20.23;82.92
50636;BME280;36598;46.054;11.130;2022-09-09T01:12:58;98904.44;;;20.40;81.23
50636;BME280;36598;46.054;11.130;2022-09-09T01:15:26;98909.41;;;20.65;80.29
50636;BME280;36598;46.054;11.130;2022-09-09T01:20:30;98905.50;;;20.78;80.17
50636;BME280;36598;46.054;11.130;2022-09-09T01:28:16;98899.06;;;20.97;78.44
50636;BME280;36598;46.054;11.130;2022-09-09T01:30:44;98894.94;;;20.93;78.53
50636;BME280;36598;46.054;11.130;2022-09-09T01:33:11;98897.13;;;21.04;78.03
50636;BME280;36598;46.054;11.130;2022-09-09T01:38:13;98897.94;;;21.10;77.24
50636;BME280;36598;46.054;11.130;2022-09-09T01:40:39;98903.34;;;21.13;76.76
50636;BME280;36598;46.054;11.130;2022-09-09T01:43:04;98898.91;;;21.07;76.40
50636;BME280;36598;46.054;11.130;2022-09-09T01:45:31;98902.03;;;21.09;76.11
50636;BME280;36598;46.054;11.130;2022-09-09T01:47:57;98901.47;;;21.05;76.51
50636;BME280;36598;46.054;11.130;2022-09-09T01:50:23;98899.63;;;21.01;76.83
50636;BME280;36598;46.054;11.130;2022-09-09T01:52:52;98895.78;;;20.99;77.17
50636;BME280;36598;46.054;11.130;2022-09-09T01:55:20;98890.78;;;21.09;76.74
50636;BME280;36598;46.054;11.130;2022-09-09T01:57:56;98892.31;;;21.10;76.98
50636;BME280;36598;46.054;11.130;2022-09-09T02:00:28;98890.81;;;21.14;77.47
50636;BME280;36598;46.054;11.130;2022-09-09T02:08:18;98904.19;;;21.19;77.50
50636;BME280;36598;46.054;11.130;2022-09-09T02:10:46;98901.97;;;21.03;78.45
50636;BME280;36598;46.054;11.130;2022-09-09T02:13:15;98892.63;;;20.91;78.38
50636;BME280;36598;46.054;11.130;2022-09-09T02:15:55;98896.78;;;20.96;78.13
50636;BME280;36598;46.054;11.130;2022-09-09T02:18:24;98895.22;;;20.95;78.34
50636;BME280;36598;46.054;11.130;2022-09-09T02:20:51;98898.88;;;21.01;77.34
50636;BME280;36598;46.054;11.130;2022-09-09T02:23:18;98901.53;;;21.10;75.75
50636;BME280;36598;46.054;11.130;2022-09-09T02:25:44;98894.72;;;21.17;75.29
50636;BME280;36598;46.054;11.130;2022-09-09T02:28:11;98888.47;;;21.07;75.62
50636;BME280;36598;46.054;11.130;2022-09-09T02:30:37;98897.00;;;21.18;75.20
50636;BME280;36598;46.054;11.130;2022-09-09T02:33:04;98886.22;;;21.11;74.92
50636;BME280;36598;46.054;11.130;2022-09-09T02:35:31;98879.28;;;20.86;75.94
50636;BME280;36598;46.054;11.130;2022-09-09T02:37:58;98873.97;;;20.94;75.69
50636;BME280;36598;46.054;11.130;2022-09-09T02:40:24;98878.91;;;20.79;76.19
50636;BME280;36598;46.054;11.130;2022-09-09T02:42:50;98869.50;;;20.82;76.17
50636;BME280;36598;46.054;11.130;2022-09-09T02:45:16;98877.78;;;20.91;75.82
50636;BME280;36598;46.054;11.130;2022-09-09T02:50:12;98875.03;;;20.96;75.14
50636;BME280;36598;46.054;11.130;2022-09-09T02:55:16;98881.31;;;20.86;73.90
50636;BME280;36598;46.054;11.130;2022-09-09T02:57:43;98881.31;;;20.86;73.63
50636;BME280;36598;46.054;11.130;2022-09-09T03:00:12;98882.28;;;20.83;73.79
50636;BME280;36598;46.054;11.130;2022-09-09T03:02:37;98879.47;;;20.83;73.76
50636;BME280;36598;46.054;11.130;2022-09-09T03:05:03;98880.16;;;20.98;73.37
50636;BME280;36598;46.054;11.130;2022-09-09T03:07:30;98879.63;;;20.73;73.83
50636;BME280;36598;46.054;11.130;2022-09-09T03:09:55;98872.94;;;20.91;73.22
50636;BME280;36598;46.054;11.130;2022-09-09T03:12:20;98882.00;;;20.81;73.88
50636;BME280;36598;46.054;11.130;2022-09-09T03:14:45;98879.69;;;20.99;73.48
50636;BME280;36598;46.054;11.130;2022-09-09T03:17:11;98876.47;;;20.86;73.64
50636;BME280;36598;46.054;11.130;2022-09-09T03:19:37;98882.00;;;21.01;73.21
50636;BME280;36598;46.054;11.130;2022-09-09T03:22:02;98868.44;;;20.99;73.59
50636;BME280;36598;46.054;11.130;2022-09-09T03:24:29;98865.47;;;21.09;73.10
50636;BME280;36598;46.054;11.130;2022-09-09T03:26:55;98862.09;;;21.05;73.26
50636;BME280;36598;46.054;11.130;2022-09-09T03:29:20;98866.09;;;20.98;73.95
50636;BME280;36598;46.054;11.130;2022-09-09T03:31:46;98867.09;;;20.95;73.76
50636;BME280;36598;46.054;11.130;2022-09-09T03:34:12;98870.59;;;21.10;73.45
50636;BME280;36598;46.054;11.130;2022-09-09T03:36:38;98874.03;;;21.20;73.32
50636;BME280;36598;46.054;11.130;2022-09-09T03:39:04;98867.56;;;21.14;73.92
50636;BME280;36598;46.054;11.130;2022-09-09T03:41:29;98857.75;;;21.04;74.59
50636;BME280;36598;46.054;11.130;2022-09-09T03:43:55;98851.91;;;21.07;74.31
50636;BME280;36598;46.054;11.130;2022-09-09T03:46:21;98848.44;;;20.97;74.22
50636;BME280;36598;46.054;11.130;2022-09-09T03:48:47;98848.13;;;20.90;74.26
50636;BME280;36598;46.054;11.130;2022-09-09T03:51:13;98850.38;;;20.86;73.65
50636;BME280;36598;46.054;11.130;2022-09-09T03:53:38;98849.25;;;20.57;74.65
50636;BME280;36598;46.054;11.130;2022-09-09T03:56:04;98848.19;;;20.55;74.25
50636;BME280;36598;46.054;11.130;2022-09-09T03:58:32;98848.16;;;20.69;73.47
50636;BME280;36598;46.054;11.130;2022-09-09T04:00:58;98853.97;;;20.66;73.57
50636;BME280;36598;46.054;11.130;2022-09-09T04:03:24;98849.94;;;20.72;74.12
50636;BME280;36598;46.054;11.130;2022-09-09T04:05:53;98854.38;;;20.79;74.44
50636;BME280;36598;46.054;11.130;2022-09-09T04:08:18;98851.06;;;20.81;74.29
50636;BME280;36598;46.054;11.130;2022-09-09T04:10:45;98847.06;;;20.67;73.38
50636;BME280;36598;46.054;11.130;2022-09-09T04:13:12;98856.13;;;20.21;75.32
50636;BME280;36598;46.054;11.130;2022-09-09T04:15:38;98848.47;;;20.01;76.99
50636;BME280;36598;46.054;11.130;2022-09-09T04:18:03;98847.19;;;20.02;76.97
50636;BME280;36598;46.054;11.130;2022-09-09T04:20:28;98844.50;;;20.28;75.89
50636;BME280;36598;46.054;11.130;2022-09-09T04:22:55;98855.81;;;20.13;76.77
50636;BME280;36598;46.054;11.130;2022-09-09T04:25:20;98851.06;;;20.05;76.91
50636;BME280;36598;46.054;11.130;2022-09-09T04:27:45;98849.81;;;20.06;76.69
50636;BME280;36598;46.054;11.130;2022-09-09T04:30:12;98847.66;;;20.15;75.81
50636;BME280;36598;46.054;11.130;2022-09-09T04:32:37;98846.31;;;20.11;76.29
50636;BME280;36598;46.054;11.130;2022-09-09T04:35:03;98841.25;;;20.15;75.95
50636;BME280;36598;46.054;11.130;2022-09-09T04:37:28;98850.19;;;20.34;75.36
50636;BME280;36598;46.054;11.130;2022-09-09T04:42:19;98843.09;;;20.38;74.78
50636;BME280;36598;46.054;11.130;2022-09-09T04:44:44;98842.75;;;20.31;74.43
50636;BME280;36598;46.054;11.130;2022-09-09T04:47:10;98846.41;;;20.52;73.31
50636;BME280;36598;46.054;11.130;2022-09-09T04:49:35;98845.19;;;20.58;73.39
50636;BME280;36598;46.054;11.130;2022-09-09T04:52:02;98843.91;;;20.39;74.75
50636;BME280;36598;46.054;11.130;2022-09-09T04:54:27;98845.13;;;20.38;74.34
50636;BME280;36598;46.054;11.130;2022-09-09T04:56:53;98845.47;;;20.60;73.69
50636;BME280;36598;46.054;11.130;2022-09-09T04:59:19;98846.44;;;20.57;73.45
50636;BME280;36598;46.054;11.130;2022-09-09T05:01:45;98851.66;;;20.64;73.50
50636;BME280;36598;46.054;11.130;2022-09-09T05:04:10;98851.09;;;20.60;74.11
50636;BME280;36598;46.054;11.130;2022-09-09T05:06:36;98852.63;;;20.82;73.46
50636;BME280;36598;46.054;11.130;2022-09-09T05:09:01;98856.00;;;20.86;72.25
50636;BME280;36598;46.054;11.130;2022-09-09T05:11:27;98859.59;;;20.86;70.90
50636;BME280;36598;46.054;11.130;2022-09-09T05:13:53;98860.34;;;20.87;70.89
50636;BME280;36598;46.054;11.130;2022-09-09T05:16:19;98862.47;;;20.92;70.46
50636;BME280;36598;46.054;11.130;2022-09-09T05:18:44;98860.47;;;20.98;69.97
50636;BME280;36598;46.054;11.130;2022-09-09T05:21:15;98865.00;;;20.90;70.35
50636;BME280;36598;46.054;11.130;2022-09-09T05:23:41;98857.66;;;20.98;69.59
50636;BME280;36598;46.054;11.130;2022-09-09T05:26:08;98862.06;;;21.25;69.32
50636;BME280;36598;46.054;11.130;2022-09-09T05:28:34;98861.28;;;21.24;68.54
50636;BME280;36598;46.054;11.130;2022-09-09T05:31:01;98869.34;;;21.11;69.15
50636;BME280;36598;46.054;11.130;2022-09-09T05:33:30;98881.78;;;21.05;68.75
50636;BME280;36598;46.054;11.130;2022-09-09T05:35:59;98878.63;;;20.97;69.46
50636;BME280;36598;46.054;11.130;2022-09-09T05:38:25;98878.34;;;20.95;69.56
50636;BME280;36598;46.054;11.130;2022-09-09T05:40:51;98881.88;;;20.90;69.54
50636;BME280;36598;46.054;11.130;2022-09-09T05:43:17;98890.38;;;20.95;68.66
50636;BME280;36598;46.054;11.130;2022-09-09T05:45:42;98904.03;;;20.82;69.63
50636;BME280;36598;46.054;11.130;2022-09-09T05:48:07;98892.56;;;20.86;69.45
50636;BME280;36598;46.054;11.130;2022-09-09T05:50:33;98898.19;;;20.86;69.06
50636;BME280;36598;46.054;11.130;2022-09-09T05:52:58;98892.25;;;21.04;68.33
50636;BME280;36598;46.054;11.130;2022-09-09T05:55:24;98870.94;;;21.18;68.55
50636;BME280;36598;46.054;11.130;2022-09-09T05:57:50;98852.16;;;21.09;68.76
50636;BME280;36598;46.054;11.130;2022-09-09T06:00:16;98851.94;;;21.13;68.26
50636;BME280;36598;46.054;11.130;2022-09-09T06:02:42;98852.34;;;21.26;67.92
50636;BME280;36598;46.054;11.130;2022-09-09T06:05:07;98850.63;;;21.08;67.93
50636;BME280;36598;46.054;11.130;2022-09-09T06:07:33;98853.34;;;21.02;67.49
50636;BME280;36598;46.054;11.130;2022-09-09T06:09:58;98855.34;;;20.96;67.52
50636;BME280;36598;46.054;11.130;2022-09-09T06:12:25;98868.84;;;20.92;68.17
50636;BME280;36598;46.054;11.130;2022-09-09T06:14:50;98866.34;;;20.94;68.40
50636;BME280;36598;46.054;11.130;2022-09-09T06:17:16;98866.75;;;20.87;68.92
50636;BME280;36598;46.054;11.130;2022-09-09T06:19:42;98860.06;;;20.85;68.52
50636;BME280;36598;46.054;11.130;2022-09-09T06:22:07;98857.81;;;20.89;68.30
50636;BME280;36598;46.054;11.130;2022-09-09T06:24:32;98854.28;;;20.94;68.35
50636;BME280;36598;46.054;11.130;2022-09-09T06:26:58;98861.16;;;21.13;67.52
50636;BME280;36598;46.054;11.130;2022-09-09T06:29:23;98848.53;;;21.29;66.64
50636;BME280;36598;46.054;11.130;2022-09-09T06:31:48;98852.56;;;21.22;66.93
50636;BME280;36598;46.054;11.130;2022-09-09T06:34:14;98852.88;;;21.30;66.56
50636;BME280;36598;46.054;11.130;2022-09-09T06:36:39;98854.09;;;21.23;66.11
50636;BME280;36598;46.054;11.130;2022-09-09T06:39:05;98860.38;;;21.33;66.00
50636;BME280;36598;46.054;11.130;2022-09-09T06:41:31;98854.50;;;21.37;65.75
50636;BME280;36598;46.054;11.130;2022-09-09T06:43:56;98863.84;;;21.48;65.19
50636;BME280;36598;46.054;11.130;2022-09-09T06:46:23;98866.97;;;21.30;65.50
50636;BME280;36598;46.054;11.130;2022-09-09T06:48:48;98860.53;;;21.50;65.19
50636;BME280;36598;46.054;11.130;2022-09-09T06:51:18;98860.00;;;21.46;65.25
50636;BME280;36598;46.054;11.130;2022-09-09T06:53:44;98872.81;;;21.53;65.16
50636;BME280;36598;46.054;11.130;2022-09-09T06:58:41;98873.38;;;21.57;64.70
50636;BME280;36598;46.054;11.130;2022-09-09T07:01:10;98876.63;;;21.49;65.32
50636;BME280;36598;46.054;11.130;2022-09-09T07:03:37;98875.59;;;21.79;64.62
50636;BME280;36598;46.054;11.130;2022-09-09T07:06:03;98875.94;;;21.86;64.65
50636;BME280;36598;46.054;11.130;2022-09-09T07:08:29;98883.59;;;21.54;65.24
50636;BME280;36598;46.054;11.130;2022-09-09T07:11:01;98885.03;;;21.44;65.26
50636;BME280;36598;46.054;11.130;2022-09-09T07:13:27;98882.03;;;21.53;65.73
50636;BME280;36598;46.054;11.130;2022-09-09T07:15:52;98875.19;;;21.91;64.26
50636;BME280;36598;46.054;11.130;2022-09-09T07:18:18;98887.19;;;21.86;64.29
50636;BME280;36598;46.054;11.130;2022-09-09T07:20:52;98887.94;;;21.81;64.49
50636;BME280;36598;46.054;11.130;2022-09-09T07:23:18;98886.78;;;21.67;64.58
50636;BME280;36598;46.054;11.130;2022-09-09T07:25:46;98877.28;;;21.65;65.06
50636;BME280;36598;46.054;11.130;2022-09-09T07:28:12;98890.22;;;21.51;64.73
50636;BME280;36598;46.054;11.130;2022-09-09T07:30:38;98884.31;;;21.49;65.06
50636;BME280;36598;46.054;11.130;2022-09-09T07:33:03;98881.28;;;21.53;64.59
50636;BME280;36598;46.054;11.130;2022-09-09T07:35:28;98890.50;;;21.53;64.60
50636;BME280;36598;46.054;11.130;2022-09-09T07:37:54;98890.88;;;21.66;65.45
50636;BME280;36598;46.054;11.130;2022-09-09T07:40:19;98882.25;;;21.75;65.75
50636;BME280;36598;46.054;11.130;2022-09-09T07:42:46;98884.13;;;21.58;67.40
50636;BME280;36598;46.054;11.130;2022-09-09T07:45:12;98873.06;;;22.12;66.53
50636;BME280;36598;46.054;11.130;2022-09-09T07:47:37;98875.50;;;21.93;68.05
50636;BME280;36598;46.054;11.130;2022-09-09T07:50:03;98885.19;;;22.18;65.94
50636;BME280;36598;46.054;11.130;2022-09-09T07:52:28;98894.28;;;22.08;66.39
50636;BME280;36598;46.054;11.130;2022-09-09T07:54:53;98891.88;;;21.95;65.91
50636;BME280;36598;46.054;11.130;2022-09-09T07:57:19;98907.72;;;21.92;66.80
50636;BME280;36598;46.054;11.130;2022-09-09T07:59:44;98910.19;;;21.53;67.98
50636;BME280;36598;46.054;11.130;2022-09-09T08:02:10;98906.59;;;21.53;67.59
50636;BME280;36598;46.054;11.130;2022-09-09T08:04:36;98915.69;;;21.94;66.70
50636;BME280;36598;46.054;11.130;2022-09-09T08:07:01;98911.88;;;21.97;66.31
50636;BME280;36598;46.054;11.130;2022-09-09T08:09:28;98917.47;;;21.65;67.55
50636;BME280;36598;46.054;11.130;2022-09-09T08:11:54;98914.16;;;21.67;67.07
50636;BME280;36598;46.054;11.130;2022-09-09T08:14:21;98923.66;;;21.69;67.56
50636;BME280;36598;46.054;11.130;2022-09-09T08:16:47;98932.84;;;21.64;67.17
50636;BME280;36598;46.054;11.130;2022-09-09T08:19:13;98926.69;;;21.66;67.54
50636;BME280;36598;46.054;11.130;2022-09-09T08:21:40;98923.38;;;21.93;66.77
50636;BME280;36598;46.054;11.130;2022-09-09T08:24:06;98925.03;;;21.80;67.20
50636;BME280;36598;46.054;11.130;2022-09-09T08:26:32;98935.31;;;21.83;66.95
50636;BME280;36598;46.054;11.130;2022-09-09T08:28:59;98945.28;;;21.84;67.08
50636;BME280;36598;46.054;11.130;2022-09-09T08:31:26;98949.28;;;21.71;67.64
50636;BME280;36598;46.054;11.130;2022-09-09T08:33:53;98946.31;;;21.81;67.64
50636;BME280;36598;46.054;11.130;2022-09-09T08:36:19;98957.66;;;21.92;67.66
50636;BME280;36598;46.054;11.130;2022-09-09T08:38:49;98959.53;;;22.00;66.77
50636;BME280;36598;46.054;11.130;2022-09-09T08:43:40;98933.31;;;21.37;69.11
50636;BME280;36598;46.054;11.130;2022-09-09T08:46:09;98944.66;;;21.42;68.35
50636;BME280;36598;46.054;11.130;2022-09-09T08:48:48;98953.81;;;21.37;69.09
50636;BME280;36598;46.054;11.130;2022-09-09T08:51:17;98960.03;;;21.26;69.56
50636;BME280;36598;46.054;11.130;2022-09-09T08:53:44;98955.47;;;21.09;69.54
50636;BME280;36598;46.054;11.130;2022-09-09T08:56:12;98959.25;;;21.06;69.59
50636;BME280;36598;46.054;11.130;2022-09-09T08:58:49;98969.31;;;20.92;69.47
50636;BME280;36598;46.054;11.130;2022-09-09T09:01:17;98971.41;;;20.56;71.40
50636;BME280;36598;46.054;11.130;2022-09-09T09:06:41;98984.47;;;20.94;70.37
50636;BME280;36598;46.054;11.130;2022-09-09T09:09:11;98977.75;;;20.92;71.03
50636;BME280;36598;46.054;11.130;2022-09-09T09:16:52;98987.88;;;20.84;73.03
50636;BME280;36598;46.054;11.130;2022-09-09T09:19:19;98990.72;;;21.04;72.49
50636;BME280;36598;46.054;11.130;2022-09-09T09:21:50;98992.31;;;21.11;72.33
50636;BME280;36598;46.054;11.130;2022-09-09T09:24:19;98993.44;;;21.19;72.37
50636;BME280;36598;46.054;11.130;2022-09-09T09:26:44;98984.63;;;21.72;70.03
50636;BME280;36598;46.054;11.130;2022-09-09T09:29:12;98980.09;;;21.81;69.53
50636;BME280;36598;46.054;11.130;2022-09-09T09:31:38;98987.22;;;21.76;69.56
50636;BME280;36598;46.054;11.130;2022-09-09T09:34:03;98980.75;;;21.96;68.69
50636;BME280;36598;46.054;11.130;2022-09-09T09:36:38;98991.63;;;21.83;68.74
50636;BME280;36598;46.054;11.130;2022-09-09T09:39:04;98991.78;;;21.99;68.76
50636;BME280;36598;46.054;11.130;2022-09-09T09:41:34;98988.22;;;22.31;67.22
50636;BME280;36598;46.054;11.130;2022-09-09T09:44:00;98989.41;;;22.50;66.20
50636;BME280;36598;46.054;11.130;2022-09-09T09:46:26;98992.97;;;22.45;66.26
50636;BME280;36598;46.054;11.130;2022-09-09T09:48:56;98994.84;;;22.59;65.91
50636;BME280;36598;46.054;11.130;2022-09-09T09:51:21;99002.19;;;22.45;65.45
50636;BME280;36598;46.054;11.130;2022-09-09T09:53:47;99001.56;;;22.04;66.26
50636;BME280;36598;46.054;11.130;2022-09-09T09:56:14;99004.53;;;21.69;67.34
50636;BME280;36598;46.054;11.130;2022-09-09T10:01:24;99001.13;;;21.85;65.68
50636;BME280;36598;46.054;11.130;2022-09-09T10:03:51;98993.66;;;21.82;66.39
50636;BME280;36598;46.054;11.130;2022-09-09T10:06:16;98996.47;;;22.08;65.38
50636;BME280;36598;46.054;11.130;2022-09-09T10:08:45;98989.72;;;22.58;62.64
50636;BME280;36598;46.054;11.130;2022-09-09T10:21:20;98971.84;;;24.14;55.97
50636;BME280;36598;46.054;11.130;2022-09-09T10:36:40;98957.84;;;23.48;55.95
50636;BME280;36598;46.054;11.130;2022-09-09T10:55:19;98971.63;;;23.18;56.22
50636;BME280;36598;46.054;11.130;2022-09-09T10:57:51;98972.78;;;22.95;56.19
50636;BME280;36598;46.054;11.130;2022-09-09T11:00:51;98966.09;;;22.49;56.40
50636;BME280;36598;46.054;11.130;2022-09-09T11:03:28;98956.53;;;22.79;56.59
50636;BME280;36598;46.054;11.130;2022-09-09T11:06:09;98958.53;;;22.72;55.54
50636;BME280;36598;46.054;11.130;2022-09-09T11:08:38;98968.59;;;22.10;57.91
50636;BME280;36598;46.054;11.130;2022-09-09T11:18:40;98968.81;;;22.07;57.72
50636;BME280;36598;46.054;11.130;2022-09-09T11:21:10;98969.34;;;22.11;58.00
50636;BME280;36598;46.054;11.130;2022-09-09T11:23:42;98969.69;;;21.92;58.36
50636;BME280;36598;46.054;11.130;2022-09-09T11:26:11;98968.84;;;21.81;57.96
50636;BME280;36598;46.054;11.130;2022-09-09T11:28:50;98967.03;;;21.83;58.31
50636;BME280;36598;46.054;11.130;2022-09-09T11:33:57;98962.59;;;21.97;57.15
50636;BME280;36598;46.054;11.130;2022-09-09T11:39:27;98957.75;;;22.03;57.31
50636;BME280;36598;46.054;11.130;2022-09-09T11:41:45;98957.97;;;22.25;56.96
50636;BME280;36598;46.054;11.130;2022-09-09T11:44:11;98958.44;;;22.18;56.53
50636;BME280;36598;46.054;11.130;2022-09-09T11:46:37;98951.09;;;22.32;57.20
50636;BME280;36598;46.054;11.130;2022-09-09T11:49:04;98939.88;;;22.38;56.83
50636;BME280;36598;46.054;11.130;2022-09-09T11:51:31;98946.38;;;22.18;57.01
50636;BME280;36598;46.054;11.130;2022-09-09T11:54:00;98944.34;;;22.56;56.58
50636;BME280;36598;46.054;11.130;2022-09-09T11:59:06;98929.72;;;23.00;55.90
50636;BME280;36598;46.054;11.130;2022-09-09T12:01:41;98935.03;;;23.52;54.31
50636;BME280;36598;46.054;11.130;2022-09-09T12:06:43;98924.75;;;24.72;51.74
50636;BME280;36598;46.054;11.130;2022-09-09T12:11:48;98916.34;;;25.61;48.80
50636;BME280;36598;46.054;11.130;2022-09-09T12:14:35;98908.31;;;26.06;48.26
50636;BME280;36598;46.054;11.130;2022-09-09T12:17:17;98916.44;;;26.51;46.85
50636;BME280;36598;46.054;11.130;2022-09-09T12:19:44;98908.75;;;26.40;46.26
50636;BME280;36598;46.054;11.130;2022-09-09T12:22:13;98897.97;;;26.63;45.52
50636;BME280;36598;46.054;11.130;2022-09-09T12:24:43;98900.94;;;26.77;45.86
50636;BME280;36598;46.054;11.130;2022-09-09T12:27:23;98898.44;;;26.43;45.55
50636;BME280;36598;46.054;11.130;2022-09-09T12:29:59;98895.91;;;26.09;47.66
50636;BME280;36598;46.054;11.130;2022-09-09T12:32:27;98880.88;;;25.90;47.81
50636;BME280;36598;46.054;11.130;2022-09-09T12:39:57;98875.09;;;26.01;46.74
50636;BME280;36598;46.054;11.130;2022-09-09T12:42:23;98880.34;;;25.91;47.05
50636;BME280;36598;46.054;11.130;2022-09-09T12:44:53;98871.31;;;25.93;46.81
50636;BME280;36598;46.054;11.130;2022-09-09T12:47:18;98869.50;;;26.20;46.53
50636;BME280;36598;46.054;11.130;2022-09-09T12:49:45;98866.91;;;26.71;46.37
50636;BME280;36598;46.054;11.130;2022-09-09T12:52:27;98862.44;;;26.57;46.28
50636;BME280;36598;46.054;11.130;2022-09-09T12:54:55;98862.06;;;26.41;45.16
50636;BME280;36598;46.054;11.130;2022-09-09T12:57:21;98854.44;;;26.06;45.79
50636;BME280;36598;46.054;11.130;2022-09-09T12:59:49;98850.31;;;26.07;45.83
50636;BME280;36598;46.054;11.130;2022-09-09T13:02:22;98843.75;;;26.18;45.73
50636;BME280;36598;46.054;11.130;2022-09-09T13:04:48;98838.59;;;26.16;45.61
50636;BME280;36598;46.054;11.130;2022-09-09T13:07:15;98835.31;;;26.12;45.01
50636;BME280;36598;46.054;11.130;2022-09-09T13:09:41;98840.25;;;26.06;44.54
50636;BME280;36598;46.054;11.130;2022-09-09T13:12:09;98825.31;;;26.06;45.71
50636;BME280;36598;46.054;11.130;2022-09-09T13:14:38;98827.63;;;26.07;45.47
50636;BME280;36598;46.054;11.130;2022-09-09T13:17:04;98818.13;;;26.05;45.52
50636;BME280;36598;46.054;11.130;2022-09-09T13:19:31;98810.25;;;25.92;45.23
50636;BME280;36598;46.054;11.130;2022-09-09T13:21:57;98803.66;;;26.08;45.76
50636;BME280;36598;46.054;11.130;2022-09-09T13:24:33;98807.91;;;25.96;45.02
50636;BME280;36598;46.054;11.130;2022-09-09T13:27:03;98800.69;;;25.95;46.02
50636;BME280;36598;46.054;11.130;2022-09-09T13:29:30;98800.16;;;25.96;46.14
50636;BME280;36598;46.054;11.130;2022-09-09T13:32:06;98794.59;;;25.85;46.14
